Manzini, Swaziland

8:31 AM SAST on August 25, 2016 (GMT +0200)
Matsapha International | | Change Station

Elev 2103 ft 26.53 °S, 31.31 °E | Updated 31 minutes ago

Clear
Clear
57 °F
Feels Like 57 °F
N
10
Wind Variable Wind from North

Today
High -- | Low -- °F
--% Chance of Precip.
Yesterday
High -- | Low -- °F
Precip. -- in
Pressure 30.36 in
Visibility -9999.0 miles
Clouds
Dew Point 41 °F
Humidity 55%
Rainfall 0.00 in
Snow Depth Not available.
6:14 AM 5:39 PM
Waning Gibbous, 49% visible
METAR FDMS 250600Z 35009KT CAVOK 14/05 Q1028 NOSIG
Pressure 30.36 in
Visibility -9999.0 miles
Clouds
Dew Point 41 °F
Humidity 55%
Rainfall 0.00 in
Snow Depth Not available.
6:14 AM 5:39 PM
Waning Gibbous, 49% visible
METAR FDMS 250600Z 35009KT CAVOK 14/05 Q1028 NOSIG

10-Day Weather Forecast

No radar image for this location.
×

Almanac

Astronomy

Aug. 25, 2016 Rise Set
Actual Time
Civil Twilight
Nautical Twilight
Astronomical Twilight
Moon
Length of Visible Light
Length of Day
Tomorrow will be .
, % of the Moon is Illuminated

Today's Extremes

Country Highs Country Lows

Community

WunderPhotos

Upload Photos

1,934,803 photos uploaded!

WunderBlog® & News

Nearby

Air Quality

  Air Quality AQ Index Pollutant
Not available.

Snow Depth

Station Depth Elevation

Earthquake Activity

City Distance Mag. Time & Date
Minimum magnitude displayed is 2.5.

Coastal Water Temperatures

Place Temperature

Stations

Nearby Weather Stations

Station Location Temp. Windchill Dew Point Humidity Wind Precip. Elev Updated Type